Time;durP1;ratioP1;P1;durP2;ratioP2;P2;SDS_P1;SDS_P2;PMS_P1;PMS_P2;Temp;Humidity;BMP_temperature;BMP_pressure;BME280_temperature;BME280_humidity;BME280_pressure;Samples;Min_cycle;Max_cycle;Signal;HPM_P1;HPM_P2
2023/03/05 00:02:12;;;;;;;22.53;4.00;;;4.30;99.90;;;;;;5087772;28;20242;-75
2023/03/05 00:04:37;;;;;;;19.67;4.03;;;4.20;99.90;;;;;;5070398;28;20239;-75
2023/03/05 00:07:04;;;;;;;18.87;4.00;;;4.10;99.90;;;;;;5092476;28;20217;-74
2023/03/05 00:09:30;;;;;;;14.23;4.13;;;4.00;99.90;;;;;;5092016;28;20229;-75
2023/03/05 00:11:56;;;;;;;21.73;4.77;;;4.00;99.90;;;;;;5069369;28;20301;-75
2023/03/05 00:14:22;;;;;;;14.03;4.17;;;4.00;99.90;;;;;;5086032;28;20219;-75
2023/03/05 00:16:47;;;;;;;20.23;3.90;;;4.00;99.90;;;;;;5087926;28;20203;-75
2023/03/05 00:19:13;;;;;;;16.77;3.43;;;4.00;99.90;;;;;;5067980;28;21160;-75
2023/03/05 00:21:40;;;;;;;25.07;5.07;;;4.00;99.90;;;;;;5069703;28;20220;-73
2023/03/05 00:24:17;;;;;;;13.07;3.90;;;3.80;99.90;;;;;;5087353;28;20220;-74
2023/03/05 00:26:44;;;;;;;14.73;3.33;;;3.80;99.90;;;;;;5070488;28;20295;-75
2023/03/05 00:29:14;;;;;;;12.80;3.83;;;3.90;99.90;;;;;;5071248;28;20208;-75
2023/03/05 00:31:40;;;;;;;16.40;3.70;;;3.90;99.90;;;;;;5088180;28;20210;-74
2023/03/05 00:34:09;;;;;;;13.37;3.53;;;3.80;99.90;;;;;;5091854;28;20679;-74
2023/03/05 00:36:40;;;;;;;14.67;3.17;;;3.70;99.90;;;;;;5087761;28;20210;-75
2023/03/05 00:39:05;;;;;;;16.20;3.20;;;3.70;99.90;;;;;;5084326;28;20262;-74
2023/03/05 00:41:31;;;;;;;11.53;2.83;;;3.70;99.90;;;;;;5080609;28;20229;-75
2023/03/05 00:43:57;;;;;;;15.47;3.53;;;3.70;99.90;;;;;;5087380;28;20176;-75
2023/03/05 00:46:23;;;;;;;12.30;3.47;;;3.80;99.90;;;;;;5081935;28;20173;-74
2023/03/05 00:48:49;;;;;;;11.10;2.70;;;3.80;99.90;;;;;;5071687;28;20213;-73
2023/03/05 00:51:14;;;;;;;13.03;3.43;;;3.80;99.90;;;;;;5087785;28;20260;-74
2023/03/05 00:53:40;;;;;;;15.37;3.90;;;3.90;99.90;;;;;;5066724;28;20634;-74
2023/03/05 00:56:06;;;;;;;12.53;3.97;;;3.90;99.90;;;;;;5070192;28;20584;-74
2023/03/05 00:58:32;;;;;;;11.47;2.83;;;3.70;99.90;;;;;;5091564;28;20299;-74
2023/03/05 01:00:59;;;;;;;14.10;3.73;;;3.80;99.90;;;;;;5087351;28;20228;-74
2023/03/05 01:03:25;;;;;;;9.73;3.03;;;3.80;99.90;;;;;;5083770;28;20598;-73
2023/03/05 01:05:50;;;;;;;16.77;3.37;;;3.80;99.90;;;;;;5086654;28;20215;-74
2023/03/05 01:08:16;;;;;;;12.73;3.07;;;3.80;99.90;;;;;;5065964;28;20347;-74
2023/03/05 01:10:42;;;;;;;12.47;2.97;;;3.80;99.90;;;;;;5085441;28;20209;-74
2023/03/05 01:13:08;;;;;;;16.87;3.53;;;3.80;99.90;;;;;;5089378;28;20215;-74
2023/03/05 01:15:34;;;;;;;13.87;2.70;;;3.70;99.90;;;;;;5085740;28;20209;-73
2023/03/05 01:17:59;;;;;;;11.70;2.87;;;3.70;99.90;;;;;;5091150;28;20668;-73
2023/03/05 01:20:25;;;;;;;10.37;2.37;;;3.70;99.90;;;;;;5091461;28;20240;-73
2023/03/05 01:22:51;;;;;;;10.70;2.60;;;3.60;99.90;;;;;;5069329;28;20200;-74
2023/03/05 01:25:17;;;;;;;15.03;3.60;;;3.60;99.90;;;;;;5074679;28;20236;-74
2023/03/05 01:27:43;;;;;;;14.57;2.83;;;3.70;99.90;;;;;;5066401;28;20221;-74
2023/03/05 01:30:11;;;;;;;8.60;2.23;;;3.60;99.90;;;;;;5068609;28;20219;-75
2023/03/05 01:32:37;;;;;;;9.97;2.20;;;3.70;99.90;;;;;;5086006;28;20215;-74
2023/03/05 01:35:04;;;;;;;8.13;2.50;;;3.60;99.90;;;;;;5090647;28;20184;-73
2023/03/05 01:37:30;;;;;;;16.03;2.90;;;3.60;99.90;;;;;;5068809;28;20192;-73
2023/03/05 01:39:55;;;;;;;8.80;2.60;;;3.60;99.90;;;;;;5068296;28;20216;-74
2023/03/05 01:42:21;;;;;;;9.77;2.93;;;3.50;99.90;;;;;;5071909;28;20221;-74
2023/03/05 01:45:08;;;;;;;15.90;3.57;;;3.60;99.90;;;;;;5068821;28;20293;-74
2023/03/05 01:47:34;;;;;;;12.23;2.60;;;3.60;99.90;;;;;;5088381;28;20239;-74
2023/03/05 01:50:00;;;;;;;7.37;2.30;;;3.50;99.90;;;;;;5072273;28;20699;-74
2023/03/05 01:52:29;;;;;;;13.93;2.20;;;3.50;99.90;;;;;;5070392;28;20187;-72
2023/03/05 01:55:04;;;;;;;10.40;2.17;;;3.40;99.90;;;;;;5090340;28;20215;-74
2023/03/05 01:57:35;;;;;;;12.67;3.03;;;3.40;99.90;;;;;;5071493;28;20221;-74
2023/03/05 02:00:09;;;;;;;7.73;2.40;;;3.40;99.90;;;;;;5072205;28;20699;-73
2023/03/05 02:02:35;;;;;;;13.60;2.07;;;3.30;99.90;;;;;;5080517;28;20224;-74
2023/03/05 02:05:08;;;;;;;14.43;2.60;;;3.20;99.90;;;;;;5066640;28;20236;-73
2023/03/05 02:07:36;;;;;;;11.03;2.33;;;3.20;99.90;;;;;;5088326;28;20632;-75
2023/03/05 02:10:25;;;;;;;16.47;3.10;;;3.30;99.90;;;;;;5087904;28;20345;-74
2023/03/05 02:12:53;;;;;;;7.60;2.10;;;3.20;99.90;;;;;;5067626;28;20701;-75
2023/03/05 02:15:19;;;;;;;9.07;1.70;;;3.30;99.90;;;;;;5082169;28;20738;-74
2023/03/05 02:17:45;;;;;;;11.00;2.70;;;3.30;99.90;;;;;;5090088;28;21628;-74
2023/03/05 02:20:14;;;;;;;9.60;2.30;;;3.20;99.90;;;;;;5090267;28;20719;-73
2023/03/05 02:22:40;;;;;;;7.47;2.47;;;3.20;99.90;;;;;;5083622;28;20208;-75
2023/03/05 02:25:25;;;;;;;9.77;2.20;;;3.20;99.90;;;;;;5066822;28;20757;-74
2023/03/05 02:27:58;;;;;;;6.33;1.67;;;3.20;99.90;;;;;;5081904;28;20703;-73
2023/03/05 02:30:24;;;;;;;6.83;1.60;;;3.20;99.90;;;;;;5085509;28;20292;-75
2023/03/05 02:32:50;;;;;;;6.53;1.80;;;3.10;99.90;;;;;;5085624;28;20234;-74
2023/03/05 02:35:16;;;;;;;11.60;2.07;;;3.10;99.90;;;;;;5086167;28;20257;-75
2023/03/05 02:37:42;;;;;;;7.00;1.80;;;3.10;99.90;;;;;;5086665;28;20182;-74
2023/03/05 02:40:08;;;;;;;6.70;2.50;;;3.10;99.90;;;;;;5075127;28;20210;-75
2023/03/05 02:42:34;;;;;;;6.73;1.70;;;3.10;99.90;;;;;;5089401;28;20268;-73
2023/03/05 02:45:02;;;;;;;4.60;2.00;;;3.10;99.90;;;;;;5085204;28;20601;-73
2023/03/05 02:47:28;;;;;;;5.00;1.73;;;3.10;99.90;;;;;;5088528;28;20565;-72
2023/03/05 02:49:54;;;;;;;12.33;2.57;;;3.00;99.90;;;;;;5079415;28;20247;-75
2023/03/05 02:52:22;;;;;;;12.70;2.03;;;3.00;99.90;;;;;;5071034;28;20767;-75
2023/03/05 02:54:48;;;;;;;5.33;1.70;;;3.00;99.90;;;;;;5088885;28;20703;-74
2023/03/05 02:57:14;;;;;;;8.07;2.20;;;3.00;99.90;;;;;;5075682;28;20783;-74
2023/03/05 02:59:39;;;;;;;5.10;2.00;;;3.10;99.90;;;;;;5085158;28;20235;-74
2023/03/05 03:02:05;;;;;;;8.90;1.90;;;3.10;99.90;;;;;;5088328;28;20674;-74
2023/03/05 03:04:31;;;;;;;5.37;2.00;;;3.10;99.90;;;;;;5090358;28;20570;-74
2023/03/05 03:06:56;;;;;;;9.53;1.60;;;3.10;99.90;;;;;;5085715;28;20200;-74
2023/03/05 03:09:22;;;;;;;6.33;1.77;;;3.10;99.90;;;;;;5067074;28;20299;-75
2023/03/05 03:11:48;;;;;;;6.87;1.97;;;3.10;99.90;;;;;;5093142;28;20571;-75
2023/03/05 03:14:13;;;;;;;6.60;2.07;;;3.20;99.90;;;;;;5068490;28;20191;-74
2023/03/05 03:16:39;;;;;;;11.77;1.87;;;3.10;99.90;;;;;;5088619;28;20214;-74
2023/03/05 03:19:04;;;;;;;9.40;2.57;;;3.10;99.90;;;;;;5085638;28;20225;-74
2023/03/05 03:21:31;;;;;;;7.17;1.87;;;3.10;99.90;;;;;;5070141;28;20734;-72
2023/03/05 03:23:56;;;;;;;4.67;1.73;;;3.10;99.90;;;;;;5085245;28;20286;-74
2023/03/05 03:26:23;;;;;;;15.00;2.17;;;3.10;99.90;;;;;;5092511;28;20285;-75
2023/03/05 03:28:48;;;;;;;9.77;2.53;;;3.10;99.90;;;;;;5088651;28;20186;-73
2023/03/05 03:31:14;;;;;;;6.63;2.10;;;3.10;99.90;;;;;;5089881;28;20215;-74
2023/03/05 03:33:40;;;;;;;7.97;2.10;;;3.10;99.90;;;;;;5092762;28;20215;-75
2023/03/05 03:36:06;;;;;;;8.03;1.77;;;3.10;99.90;;;;;;5064720;28;20694;-76
2023/03/05 03:38:31;;;;;;;6.50;1.87;;;3.10;99.90;;;;;;5088851;28;20215;-75
2023/03/05 03:40:57;;;;;;;8.07;2.07;;;3.00;99.90;;;;;;5072038;28;20239;-74
2023/03/05 03:43:23;;;;;;;8.60;2.00;;;3.00;99.90;;;;;;5085917;28;20212;-75
2023/03/05 03:45:48;;;;;;;11.20;2.53;;;3.00;99.90;;;;;;5070844;28;20697;-75
2023/03/05 03:48:14;;;;;;;9.37;2.00;;;3.00;99.90;;;;;;5078871;28;20248;-75
2023/03/05 03:50:41;;;;;;;4.97;1.33;;;2.90;99.90;;;;;;5086397;28;20207;-75
2023/03/05 03:53:08;;;;;;;7.70;1.93;;;2.90;99.90;;;;;;5066577;28;20226;-75
2023/03/05 03:55:34;;;;;;;4.97;1.67;;;3.00;99.90;;;;;;5088821;28;20175;-74
2023/03/05 03:58:00;;;;;;;8.67;1.70;;;3.00;99.90;;;;;;5083391;28;20613;-73
2023/03/05 04:00:26;;;;;;;6.90;2.10;;;2.90;99.90;;;;;;5087109;28;20215;-74
2023/03/05 04:02:51;;;;;;;8.90;1.77;;;2.80;99.90;;;;;;5069926;28;21170;-74
2023/03/05 04:05:17;;;;;;;6.97;1.50;;;2.90;99.90;;;;;;5084738;28;20219;-75
2023/03/05 04:07:44;;;;;;;4.97;1.43;;;2.80;99.90;;;;;;5084322;28;20220;-75
2023/03/05 04:10:10;;;;;;;4.13;1.43;;;2.70;99.90;;;;;;5084258;28;20237;-74
2023/03/05 04:12:36;;;;;;;6.37;1.90;;;2.70;99.90;;;;;;5060722;28;20206;-75
2023/03/05 04:15:02;;;;;;;10.20;2.00;;;2.70;99.90;;;;;;5080761;28;20583;-74
2023/03/05 04:17:27;;;;;;;8.77;2.00;;;2.60;99.90;;;;;;5073766;28;20211;-75
2023/03/05 04:19:53;;;;;;;10.70;2.27;;;2.60;99.90;;;;;;5083474;28;20318;-75
2023/03/05 04:22:19;;;;;;;5.37;1.60;;;2.50;99.90;;;;;;5080172;28;20211;-75
2023/03/05 04:24:44;;;;;;;6.33;1.73;;;2.50;99.90;;;;;;5082354;28;20581;-76
2023/03/05 04:27:10;;;;;;;6.77;1.93;;;2.50;99.90;;;;;;5084876;28;20225;-74
2023/03/05 04:29:36;;;;;;;8.63;1.73;;;2.50;99.90;;;;;;5083868;28;20842;-75
2023/03/05 04:32:01;;;;;;;9.63;2.10;;;2.40;99.90;;;;;;5069429;28;20167;-74
2023/03/05 04:34:27;;;;;;;11.23;2.43;;;2.40;99.90;;;;;;5064944;28;20185;-76
2023/03/05 04:36:53;;;;;;;5.03;2.00;;;2.40;99.90;;;;;;5062398;28;22473;-75
2023/03/05 04:39:19;;;;;;;8.87;1.60;;;2.30;99.90;;;;;;5072016;28;20216;-75
2023/03/05 04:41:46;;;;;;;6.47;1.30;;;2.30;99.90;;;;;;5064647;28;20595;-73
2023/03/05 04:44:12;;;;;;;5.67;1.73;;;2.30;99.90;;;;;;5079750;28;20175;-74
2023/03/05 04:46:38;;;;;;;6.80;1.47;;;2.30;99.90;;;;;;5087547;28;20181;-75
2023/03/05 04:49:04;;;;;;;6.57;1.80;;;2.20;99.90;;;;;;5087372;28;20643;-75
2023/03/05 04:51:29;;;;;;;9.43;1.33;;;2.20;99.90;;;;;;5084503;28;20745;-76
2023/03/05 04:53:55;;;;;;;9.97;2.23;;;2.20;99.90;;;;;;5063962;28;20203;-75
2023/03/05 04:56:20;;;;;;;6.63;2.30;;;2.20;99.90;;;;;;5087562;28;20625;-74
2023/03/05 04:58:46;;;;;;;8.07;1.60;;;2.20;99.90;;;;;;5079862;28;20252;-75
2023/03/05 05:01:12;;;;;;;7.57;2.10;;;2.20;99.90;;;;;;5074868;28;20798;-76
2023/03/05 05:03:38;;;;;;;7.27;1.30;;;2.20;99.90;;;;;;5078407;28;20457;-76
2023/03/05 05:06:04;;;;;;;7.90;1.63;;;2.20;99.90;;;;;;5100716;28;20212;-74
2023/03/05 05:08:29;;;;;;;8.43;1.70;;;2.20;99.90;;;;;;5100293;28;20217;-74
2023/03/05 05:11:04;;;;;;;4.70;1.60;;;2.10;99.90;;;;;;5072748;28;20210;-77
2023/03/05 05:13:30;;;;;;;9.60;2.00;;;2.10;99.90;;;;;;5084129;28;20259;-75
2023/03/05 05:15:56;;;;;;;6.90;1.87;;;2.10;99.90;;;;;;5081491;28;20306;-75
2023/03/05 05:18:22;;;;;;;10.30;1.97;;;2.20;99.90;;;;;;5062572;28;20320;-74
2023/03/05 05:20:48;;;;;;;11.47;2.43;;;2.40;99.90;;;;;;5065679;28;20673;-74
2023/03/05 05:23:14;;;;;;;16.60;2.73;;;2.40;99.90;;;;;;5089233;28;20214;-73
2023/03/05 05:25:41;;;;;;;6.87;2.13;;;2.40;99.90;;;;;;5085711;28;20179;-74
2023/03/05 05:28:08;;;;;;;6.27;1.60;;;2.50;99.90;;;;;;5078702;28;20194;-76
2023/03/05 05:30:34;;;;;;;4.43;1.63;;;2.30;99.90;;;;;;5075266;28;20198;-75
2023/03/05 05:32:59;;;;;;;5.77;1.60;;;2.20;99.90;;;;;;5093455;28;20700;-72
2023/03/05 05:35:25;;;;;;;6.63;2.03;;;2.30;99.90;;;;;;5072403;28;20777;-77
2023/03/05 05:37:51;;;;;;;4.67;1.47;;;2.40;99.90;;;;;;5068264;28;20587;-76
2023/03/05 05:40:16;;;;;;;8.73;1.87;;;2.40;99.90;;;;;;5080983;28;20225;-77
2023/03/05 05:42:43;;;;;;;4.07;1.50;;;2.50;99.90;;;;;;5083302;28;20223;-75
2023/03/05 05:45:09;;;;;;;4.93;1.30;;;2.50;99.90;;;;;;5068473;28;20205;-76
2023/03/05 05:47:35;;;;;;;7.40;1.63;;;2.40;99.90;;;;;;5087123;28;20290;-75
2023/03/05 05:50:01;;;;;;;5.83;1.60;;;2.40;99.90;;;;;;5076250;28;20288;-75
2023/03/05 05:52:26;;;;;;;8.57;2.00;;;2.40;99.90;;;;;;5083037;28;20263;-75
2023/03/05 05:54:52;;;;;;;5.53;2.40;;;2.40;99.90;;;;;;5071994;28;20214;-76
2023/03/05 05:57:18;;;;;;;8.63;2.43;;;2.60;99.90;;;;;;5098211;28;20283;-78
2023/03/05 05:59:43;;;;;;;7.40;1.97;;;2.70;99.90;;;;;;5083736;28;20250;-76
2023/03/05 06:02:10;;;;;;;6.80;2.00;;;2.80;99.90;;;;;;5095728;28;20210;-78
2023/03/05 06:04:36;;;;;;;6.43;1.53;;;2.70;99.90;;;;;;5075628;28;20179;-75
2023/03/05 06:07:02;;;;;;;13.67;2.23;;;2.70;99.90;;;;;;5063112;28;20198;-73
2023/03/05 06:09:28;;;;;;;7.27;2.13;;;2.70;99.90;;;;;;5090405;28;20284;-75
2023/03/05 06:11:54;;;;;;;5.80;1.47;;;2.70;99.90;;;;;;5089793;28;20206;-75
2023/03/05 06:14:20;;;;;;;6.33;1.60;;;2.70;99.90;;;;;;5072650;28;20680;-75
2023/03/05 06:16:45;;;;;;;11.70;1.93;;;2.80;99.90;;;;;;5074385;28;20178;-76
2023/03/05 06:19:12;;;;;;;7.20;1.27;;;2.80;99.90;;;;;;5094197;28;20283;-75
2023/03/05 06:21:38;;;;;;;6.10;1.67;;;2.90;99.90;;;;;;5071879;28;20214;-75
2023/03/05 06:24:04;;;;;;;6.30;1.70;;;3.00;99.90;;;;;;5075928;28;20203;-75
2023/03/05 06:26:30;;;;;;;2.53;1.30;;;3.10;99.90;;;;;;5070094;28;20246;-75
2023/03/05 06:28:56;;;;;;;6.53;1.70;;;3.10;99.90;;;;;;5089724;28;20201;-75
2023/03/05 06:31:27;;;;;;;4.70;1.97;;;3.70;99.90;;;;;;5072178;28;20533;-73
2023/03/05 06:34:02;;;;;;;6.33;1.50;;;3.60;99.90;;;;;;5093999;28;20293;-75
2023/03/05 06:36:28;;;;;;;2.90;1.40;;;3.60;99.90;;;;;;5091441;28;20203;-75
2023/03/05 06:38:55;;;;;;;5.27;1.90;;;3.70;99.90;;;;;;5073902;28;20217;-75
2023/03/05 06:41:23;;;;;;;6.20;1.30;;;3.70;99.90;;;;;;5093764;28;20314;-74
2023/03/05 06:43:49;;;;;;;8.03;1.77;;;3.70;99.90;;;;;;5091843;28;20173;-74
2023/03/05 06:46:21;;;;;;;7.00;2.10;;;3.60;99.90;;;;;;5075588;28;20318;-74
2023/03/05 06:48:47;;;;;;;6.40;1.60;;;3.70;99.90;;;;;;5093502;28;20609;-75
2023/03/05 06:51:24;;;;;;;3.90;1.73;;;3.70;99.90;;;;;;5093787;28;20750;-75
2023/03/05 06:53:51;;;;;;;4.17;1.73;;;3.70;99.90;;;;;;5091456;28;20731;-75
2023/03/05 06:56:18;;;;;;;5.30;1.57;;;3.60;99.90;;;;;;5093506;28;20217;-75
2023/03/05 06:58:45;;;;;;;5.57;1.97;;;3.60;99.90;;;;;;5089779;28;20211;-74
2023/03/05 07:01:11;;;;;;;5.97;1.70;;;3.50;99.90;;;;;;5091846;28;20208;-74
2023/03/05 07:03:37;;;;;;;5.40;1.80;;;3.40;99.90;;;;;;5091336;28;20281;-76
2023/03/05 07:06:05;;;;;;;5.07;1.60;;;3.50;99.90;;;;;;5093336;28;20207;-76
2023/03/05 07:08:31;;;;;;;4.13;1.77;;;3.60;99.90;;;;;;5086718;28;20211;-76
2023/03/05 07:10:58;;;;;;;9.20;2.03;;;3.60;99.90;;;;;;5073787;28;20648;-76
2023/03/05 07:13:24;;;;;;;5.30;2.17;;;3.70;99.90;;;;;;5075506;28;20180;-76
2023/03/05 07:15:49;;;;;;;7.10;1.50;;;3.90;99.90;;;;;;5068765;28;20589;-74
2023/03/05 07:18:15;;;;;;;6.07;1.77;;;3.90;99.90;;;;;;5074353;28;20701;-75
2023/03/05 07:20:40;;;;;;;5.33;1.30;;;3.90;99.90;;;;;;5071506;28;20218;-76
2023/03/05 07:23:06;;;;;;;3.47;1.47;;;4.00;99.90;;;;;;5091815;28;20205;-75
2023/03/05 07:25:34;;;;;;;3.67;1.60;;;3.80;99.90;;;;;;5086672;28;20170;-76
2023/03/05 07:28:00;;;;;;;4.40;1.33;;;3.90;99.90;;;;;;5092264;28;20212;-74
2023/03/05 07:30:25;;;;;;;7.83;2.00;;;3.70;99.90;;;;;;5074780;28;20669;-76
2023/03/05 07:32:51;;;;;;;9.03;2.03;;;3.70;99.90;;;;;;5092682;28;20218;-75
2023/03/05 07:35:17;;;;;;;5.27;1.90;;;3.60;99.90;;;;;;5074883;28;21025;-74
2023/03/05 07:37:42;;;;;;;5.93;1.63;;;3.60;99.90;;;;;;5074367;28;20207;-74
2023/03/05 07:40:09;;;;;;;9.27;2.07;;;3.60;99.90;;;;;;5074168;28;20208;-77
2023/03/05 07:42:34;;;;;;;8.03;1.50;;;3.70;99.90;;;;;;5088914;28;20218;-75
2023/03/05 07:45:00;;;;;;;5.77;1.40;;;3.70;99.90;;;;;;5092372;28;20223;-72
2023/03/05 07:47:25;;;;;;;9.07;2.30;;;3.80;99.90;;;;;;5074840;28;20867;-75
2023/03/05 07:49:51;;;;;;;8.80;1.80;;;3.70;99.90;;;;;;5092868;28;20228;-75
2023/03/05 07:52:17;;;;;;;7.13;1.63;;;3.70;99.90;;;;;;5088454;28;20586;-73
2023/03/05 07:54:43;;;;;;;4.67;1.73;;;3.90;99.90;;;;;;5092411;28;20216;-75
2023/03/05 07:57:12;;;;;;;5.07;1.50;;;3.90;99.90;;;;;;5073852;28;20204;-73
2023/03/05 07:59:38;;;;;;;6.33;1.97;;;4.00;99.90;;;;;;5092470;28;20216;-75
2023/03/05 08:02:04;;;;;;;5.30;1.67;;;4.10;99.90;;;;;;5091447;28;20209;-75
2023/03/05 08:04:30;;;;;;;5.60;1.37;;;4.40;99.90;;;;;;5085438;28;20186;-75
2023/03/05 08:06:57;;;;;;;7.80;2.30;;;4.70;99.90;;;;;;5089902;28;20205;-76
2023/03/05 08:09:23;;;;;;;5.83;1.77;;;5.30;99.90;;;;;;5085626;28;20237;-75
2023/03/05 08:11:49;;;;;;;9.10;1.83;;;6.30;99.90;;;;;;5091857;28;20249;-74
2023/03/05 08:14:15;;;;;;;3.83;1.30;;;7.60;99.90;;;;;;5088092;28;20249;-75
2023/03/05 08:16:40;;;;;;;7.53;2.43;;;8.30;99.90;;;;;;5074739;28;20175;-76
2023/03/05 08:19:06;;;;;;;6.30;1.70;;;8.00;99.90;;;;;;5091578;28;20222;-76
2023/03/05 08:21:34;;;;;;;6.43;2.23;;;7.70;99.90;;;;;;5091904;28;20206;-75
2023/03/05 08:24:03;;;;;;;7.37;2.10;;;7.20;99.90;;;;;;5087461;28;20284;-72
2023/03/05 08:26:31;;;;;;;6.30;1.83;;;7.70;99.90;;;;;;5067479;28;20254;-77
2023/03/05 08:28:57;;;;;;;5.20;1.80;;;8.70;99.90;;;;;;5087516;28;20702;-75
2023/03/05 08:31:24;;;;;;;6.23;1.77;;;9.10;99.90;;;;;;5092062;28;20544;-75
2023/03/05 08:33:52;;;;;;;3.20;1.57;;;9.90;99.90;;;;;;5069423;28;20294;-75
2023/03/05 08:36:18;;;;;;;4.57;1.73;;;10.00;99.90;;;;;;5072283;28;20202;-77
2023/03/05 08:38:45;;;;;;;6.03;2.20;;;9.30;99.90;;;;;;5085321;28;20259;-75
2023/03/05 08:41:11;;;;;;;4.40;2.00;;;8.50;99.90;;;;;;5070374;28;20821;-74
2023/03/05 08:43:37;;;;;;;3.83;1.73;;;7.90;99.90;;;;;;5072289;28;20759;-76
2023/03/05 08:46:03;;;;;;;5.53;1.70;;;7.10;99.90;;;;;;5087531;28;20339;-75
2023/03/05 08:48:30;;;;;;;5.97;2.17;;;6.90;99.90;;;;;;5073030;28;20202;-75
2023/03/05 08:50:56;;;;;;;6.60;1.40;;;6.40;99.90;;;;;;5091198;28;20210;-75
2023/03/05 08:53:23;;;;;;;7.67;1.70;;;6.40;99.90;;;;;;5087904;28;20215;-76
2023/03/05 08:55:58;;;;;;;3.70;1.50;;;6.60;99.90;;;;;;5084259;28;20182;-73
2023/03/05 08:58:24;;;;;;;5.10;1.97;;;6.80;99.90;;;;;;5091348;28;20210;-75
2023/03/05 09:00:50;;;;;;;3.03;1.40;;;6.70;99.90;;;;;;5090890;28;20218;-76
2023/03/05 09:03:16;;;;;;;7.33;3.43;;;6.70;99.90;;;;;;5091291;28;20218;-73
2023/03/05 09:05:42;;;;;;;4.53;1.57;;;7.00;99.90;;;;;;5087677;28;20215;-76
2023/03/05 09:08:08;;;;;;;4.13;1.50;;;7.00;99.90;;;;;;5085321;28;20179;-74
2023/03/05 09:10:34;;;;;;;5.00;1.47;;;7.50;99.90;;;;;;5087706;28;20218;-73
2023/03/05 09:12:59;;;;;;;4.53;1.80;;;6.90;99.90;;;;;;5069486;28;20199;-72
2023/03/05 09:15:25;;;;;;;5.57;1.80;;;6.60;99.90;;;;;;5068700;28;20218;-74
2023/03/05 09:17:50;;;;;;;3.47;1.70;;;6.50;99.90;;;;;;5086573;28;20334;-74
2023/03/05 09:20:17;;;;;;;4.40;1.80;;;6.60;99.90;;;;;;5072549;28;20214;-76
2023/03/05 09:22:42;;;;;;;5.70;2.10;;;6.50;99.90;;;;;;5073120;28;20198;-76
2023/03/05 09:25:10;;;;;;;6.13;1.30;;;6.30;99.90;;;;;;5072332;28;20629;-76
2023/03/05 09:27:37;;;;;;;9.07;1.73;;;6.10;99.90;;;;;;5090317;28;20214;-76
2023/03/05 09:30:04;;;;;;;3.53;1.27;;;6.00;99.90;;;;;;5090526;28;20704;-76
2023/03/05 09:32:30;;;;;;;4.77;1.40;;;5.80;99.90;;;;;;5073132;28;20210;-76
2023/03/05 09:34:56;;;;;;;4.93;1.73;;;5.90;99.90;;;;;;5073232;28;20189;-75
2023/03/05 09:37:22;;;;;;;3.93;1.63;;;5.70;99.90;;;;;;5089844;28;20213;-76
2023/03/05 09:39:48;;;;;;;6.17;1.67;;;5.30;99.90;;;;;;5087229;28;20294;-75
2023/03/05 09:42:25;;;;;;;6.17;1.20;;;5.20;99.90;;;;;;5071918;28;20332;-75
2023/03/05 09:45:29;;;;;;;5.93;2.33;;;5.20;99.90;;;;;;5072113;28;20688;-72
2023/03/05 09:48:24;;;;;;;5.70;2.23;;;5.70;99.90;;;;;;5073186;28;20228;-74
2023/03/05 09:50:57;;;;;;;4.77;2.57;;;6.00;99.90;;;;;;5069094;28;20218;-75
2023/03/05 09:54:13;;;;;;;4.63;1.53;;;6.10;99.90;;;;;;5066400;28;20218;-75
2023/03/05 09:56:43;;;;;;;4.73;1.30;;;5.80;99.90;;;;;;5060043;28;20239;-75
2023/03/05 09:59:24;;;;;;;7.17;1.37;;;5.50;99.90;;;;;;5089975;28;20213;-75
2023/03/05 10:01:52;;;;;;;5.13;2.10;;;5.60;99.90;;;;;;5069504;28;20225;-75
2023/03/05 10:04:22;;;;;;;4.70;1.57;;;5.70;99.90;;;;;;5087804;28;20294;-75
2023/03/05 10:07:21;;;;;;;3.93;2.20;;;5.80;99.90;;;;;;5088363;28;20199;-76
2023/03/05 10:10:03;;;;;;;4.80;1.87;;;5.80;99.90;;;;;;5067400;28;20210;-74
2023/03/05 10:12:41;;;;;;;7.60;1.93;;;5.80;99.90;;;;;;5084259;28;20292;-75
2023/03/05 10:15:25;;;;;;;3.97;1.30;;;5.50;99.90;;;;;;5089323;28;20210;-74
2023/03/05 10:18:30;;;;;;;5.37;1.63;;;5.30;99.90;;;;;;5090598;28;20220;-75
2023/03/05 10:21:02;;;;;;;2.10;1.47;;;5.20;99.90;;;;;;5083634;28;20226;-75
2023/03/05 10:23:57;;;;;;;5.20;1.67;;;5.30;99.90;;;;;;5072238;28;20221;-73
2023/03/05 10:26:45;;;;;;;4.93;2.20;;;5.20;99.90;;;;;;5063242;28;20210;-76
2023/03/05 10:29:31;;;;;;;4.47;2.03;;;5.00;99.90;;;;;;5088577;28;20193;-76
2023/03/05 10:32:15;;;;;;;6.83;2.80;;;5.00;99.90;;;;;;5064864;28;20635;-74
2023/03/05 10:34:59;;;;;;;5.43;1.63;;;4.70;99.90;;;;;;5086494;28;20178;-75
2023/03/05 10:37:57;;;;;;;5.73;2.10;;;4.70;99.90;;;;;;5085804;28;20293;-75
2023/03/05 10:40:31;;;;;;;6.13;2.23;;;4.70;99.90;;;;;;5089398;28;20203;-71
2023/03/05 10:42:56;;;;;;;7.00;2.20;;;4.80;99.90;;;;;;5082420;28;20210;-76
2023/03/05 10:45:31;;;;;;;6.10;2.23;;;4.90;99.90;;;;;;5089505;28;20266;-76
2023/03/05 10:48:08;;;;;;;7.07;1.50;;;5.00;99.90;;;;;;5071637;28;20233;-76
2023/03/05 10:50:43;;;;;;;5.50;1.97;;;5.20;99.90;;;;;;5068240;28;20554;-75
2023/03/05 10:53:24;;;;;;;4.97;1.87;;;5.20;99.90;;;;;;5085655;28;20171;-76
2023/03/05 10:55:54;;;;;;;3.43;1.63;;;5.00;99.90;;;;;;5082964;28;20178;-75
2023/03/05 10:58:20;;;;;;;5.27;1.97;;;5.00;99.90;;;;;;5087574;28;20207;-76
2023/03/05 11:01:05;;;;;;;7.27;2.20;;;5.10;99.90;;;;;;5091171;28;20217;-76
2023/03/05 11:03:57;;;;;;;7.27;2.00;;;5.10;99.90;;;;;;5085336;28;20727;-76
2023/03/05 11:06:44;;;;;;;3.47;2.03;;;5.00;99.90;;;;;;5085073;28;20703;-74
2023/03/05 11:09:28;;;;;;;6.63;1.80;;;4.90;99.90;;;;;;5068817;28;20222;-75
2023/03/05 11:12:07;;;;;;;7.43;3.60;;;4.90;99.90;;;;;;5089309;28;20205;-75
2023/03/05 11:14:34;;;;;;;13.20;7.20;;;4.90;99.90;;;;;;5090585;28;20206;-75
2023/03/05 11:17:02;;;;;;;7.57;3.60;;;5.00;99.90;;;;;;5074822;28;20503;-74
2023/03/05 11:19:31;;;;;;;4.60;2.13;;;5.20;99.90;;;;;;5093644;28;20639;-76
2023/03/05 11:22:15;;;;;;;6.00;1.93;;;5.30;99.90;;;;;;5074536;28;20228;-74
2023/03/05 11:24:45;;;;;;;6.23;1.90;;;5.50;99.90;;;;;;5084890;28;20267;-76
2023/03/05 11:27:25;;;;;;;7.43;2.97;;;5.40;99.90;;;;;;5091808;28;20259;-75
2023/03/05 11:29:51;;;;;;;5.27;1.90;;;5.40;99.90;;;;;;5072163;28;20209;-76
2023/03/05 11:32:21;;;;;;;3.73;1.47;;;5.40;99.90;;;;;;5074294;28;20237;-75
2023/03/05 11:34:47;;;;;;;7.90;2.30;;;5.40;99.90;;;;;;5071336;28;20576;-75
2023/03/05 11:37:31;;;;;;;6.43;1.70;;;5.30;99.90;;;;;;5087992;28;20784;-76
2023/03/05 11:40:09;;;;;;;5.10;1.70;;;5.40;99.90;;;;;;5086540;28;20210;-76
2023/03/05 11:42:39;;;;;;;5.28;2.30;;;5.50;99.90;;;;;;5087772;28;20448;-75
2023/03/05 11:45:05;;;;;;;5.43;2.17;;;5.50;99.90;;;;;;5074272;28;20201;-72
2023/03/05 11:47:35;;;;;;;5.53;1.73;;;5.70;99.90;;;;;;5088536;28;20258;-75
2023/03/05 11:50:29;;;;;;;7.33;2.37;;;5.30;99.90;;;;;;5092280;28;20822;-73
2023/03/05 11:53:37;;;;;;;5.60;2.00;;;5.50;99.90;;;;;;5080841;28;20178;-73
2023/03/05 11:56:28;;;;;;;4.73;1.77;;;5.40;99.90;;;;;;5084887;28;20202;-75
2023/03/05 11:59:01;;;;;;;4.90;1.87;;;5.50;99.90;;;;;;5085170;28;20189;-75
2023/03/05 12:01:31;;;;;;;5.93;1.83;;;5.40;99.90;;;;;;5090892;28;20205;-74
2023/03/05 12:03:57;;;;;;;5.80;2.40;;;5.20;99.90;;;;;;5067309;28;20221;-76
2023/03/05 12:06:35;;;;;;;4.03;1.77;;;5.00;99.90;;;;;;5068687;28;20221;-75
2023/03/05 12:09:11;;;;;;;5.23;2.10;;;4.70;99.90;;;;;;5086758;28;20225;-74
2023/03/05 12:11:37;;;;;;;5.50;2.20;;;4.80;99.90;;;;;;5087186;28;20580;-76
2023/03/05 12:14:08;;;;;;;4.60;2.53;;;5.00;99.90;;;;;;5087881;28;20178;-76
2023/03/05 12:16:47;;;;;;;2.97;1.73;;;5.50;99.90;;;;;;5070511;28;20174;-76
2023/03/05 12:19:18;;;;;;;4.23;1.50;;;5.80;99.90;;;;;;5087442;28;20671;-76
2023/03/05 12:21:49;;;;;;;4.77;1.80;;;6.00;99.90;;;;;;5073582;28;20221;-76
2023/03/05 12:24:23;;;;;;;5.27;1.70;;;6.00;99.90;;;;;;5090100;28;20297;-76
2023/03/05 12:26:52;;;;;;;4.43;2.27;;;6.30;99.90;;;;;;5071208;28;20561;-75
2023/03/05 12:29:36;;;;;;;4.53;1.90;;;6.30;99.90;;;;;;5065643;28;20593;-75
2023/03/05 12:32:03;;;;;;;6.20;1.90;;;6.20;99.90;;;;;;5085015;28;20214;-74
2023/03/05 12:34:45;;;;;;;4.70;1.63;;;6.40;99.90;;;;;;5074050;28;20228;-75
2023/03/05 12:37:22;;;;;;;6.20;1.37;;;6.40;99.90;;;;;;5068752;28;20271;-74
2023/03/05 12:40:20;;;;;;;3.30;1.30;;;6.70;99.90;;;;;;5088861;28;20210;-75
2023/03/05 12:43:07;;;;;;;4.80;1.63;;;6.60;99.90;;;;;;5011350;28;20220;-74
2023/03/05 12:45:36;;;;;;;5.80;2.10;;;6.60;99.90;;;;;;5088361;28;20218;-75
2023/03/05 12:48:01;;;;;;;4.83;1.50;;;6.40;99.90;;;;;;5069556;28;20782;-74
2023/03/05 12:50:27;;;;;;;4.90;1.97;;;6.00;99.90;;;;;;5072771;28;20217;-74
2023/03/05 12:52:56;;;;;;;4.87;1.53;;;5.70;99.90;;;;;;5087857;28;20181;-75
2023/03/05 12:55:33;;;;;;;3.53;1.97;;;5.60;99.90;;;;;;5067231;28;20229;-75
2023/03/05 12:58:10;;;;;;;8.73;1.80;;;5.60;99.90;;;;;;5091261;28;20210;-74
2023/03/05 13:00:54;;;;;;;2.93;2.00;;;5.60;99.90;;;;;;5083741;28;20258;-75
2023/03/05 13:03:29;;;;;;;3.83;2.03;;;5.60;99.90;;;;;;5072890;28;20697;-75
2023/03/05 13:05:57;;;;;;;7.53;2.40;;;5.70;99.90;;;;;;5084428;28;20232;-75
2023/03/05 13:08:30;;;;;;;7.80;1.87;;;5.60;99.90;;;;;;5068664;28;20562;-73